Terminal Aerodrome Forecast
Issued by NWS

Home | Current Version | Previous Version | Text Only | Print | Product List | Glossary On
Versions: 1 2 3 4 5 6 7 8 9 10 11 12 13 14 15 16 17
000
FTUS42 TJSJ 050500 RRA
TAFJSJ
TAF
TJSJ 050539Z 0506/0606 09012KT P6SM VCSH SCT025 SCT040
      TEMPO 0506/0510 VRB14G20KT -SHRA BKN025
     FM051430 08015G25KT P6SM SCT030
     FM052330 09012KT P6SM FEW025 SCT050=

USA.gov is the U.S. government's official web portal to all federal, state and local government web resources and services.